sensor_id;sensor_type;location;lat;lon;timestamp;P1;durP1;ratioP1;P2;durP2;ratioP2
68247;SDS011;55064;49.636;12.164;2023-09-12T00:03:13;19.95;;;11.65;;
68247;SDS011;55064;49.636;12.164;2023-09-12T00:05:38;15.53;;;11.10;;
68247;SDS011;55064;49.636;12.164;2023-09-12T00:18:08;15.93;;;10.90;;
68247;SDS011;55064;49.636;12.164;2023-09-12T00:23:38;18.10;;;12.13;;
68247;SDS011;55064;49.636;12.164;2023-09-12T00:33:01;17.90;;;12.20;;
68247;SDS011;55064;49.636;12.164;2023-09-12T00:49:25;17.52;;;11.60;;
68247;SDS011;55064;49.636;12.164;2023-09-12T00:55:13;17.03;;;11.33;;
68247;SDS011;55064;49.636;12.164;2023-09-12T01:13:53;19.45;;;11.85;;
68247;SDS011;55064;49.636;12.164;2023-09-12T01:19:40;16.95;;;12.07;;
68247;SDS011;55064;49.636;12.164;2023-09-12T02:01:45;17.35;;;10.75;;
68247;SDS011;55064;49.636;12.164;2023-09-12T02:07:27;18.45;;;11.52;;
68247;SDS011;55064;49.636;12.164;2023-09-12T02:10:18;17.80;;;12.55;;
68247;SDS011;55064;49.636;12.164;2023-09-12T02:31:55;16.52;;;10.88;;
68247;SDS011;55064;49.636;12.164;2023-09-12T02:41:05;13.00;;;9.00;;
68247;SDS011;55064;49.636;12.164;2023-09-12T02:56:55;12.10;;;8.70;;
68247;SDS011;55064;49.636;12.164;2023-09-12T02:59:32;12.07;;;8.80;;
68247;SDS011;55064;49.636;12.164;2023-09-12T03:02:07;13.57;;;9.15;;
68247;SDS011;55064;49.636;12.164;2023-09-12T03:14:31;15.13;;;10.70;;
68247;SDS011;55064;49.636;12.164;2023-09-12T03:17:05;16.05;;;10.82;;
68247;SDS011;55064;49.636;12.164;2023-09-12T03:19:38;18.25;;;11.20;;
68247;SDS011;55064;49.636;12.164;2023-09-12T03:28:48;16.40;;;11.20;;
68247;SDS011;55064;49.636;12.164;2023-09-12T03:40:51;16.40;;;10.82;;
68247;SDS011;55064;49.636;12.164;2023-09-12T03:46:38;18.90;;;11.25;;
68247;SDS011;55064;49.636;12.164;2023-09-12T03:52:25;16.10;;;10.40;;
68247;SDS011;55064;49.636;12.164;2023-09-12T04:00:56;12.70;;;8.82;;
68247;SDS011;55064;49.636;12.164;2023-09-12T04:03:39;12.10;;;8.67;;
68247;SDS011;55064;49.636;12.164;2023-09-12T04:12:18;15.07;;;9.93;;
68247;SDS011;55064;49.636;12.164;2023-09-12T04:24:58;13.68;;;9.63;;
68247;SDS011;55064;49.636;12.164;2023-09-12T04:34:13;15.13;;;10.13;;
68247;SDS011;55064;49.636;12.164;2023-09-12T04:36:38;15.67;;;10.10;;
68247;SDS011;55064;49.636;12.164;2023-09-12T04:41:48;14.73;;;10.63;;
68247;SDS011;55064;49.636;12.164;2023-09-12T04:44:14;16.20;;;10.70;;
68247;SDS011;55064;49.636;12.164;2023-09-12T04:46:39;14.10;;;9.17;;
68247;SDS011;55064;49.636;12.164;2023-09-12T04:49:08;16.90;;;10.75;;
68247;SDS011;55064;49.636;12.164;2023-09-12T04:51:35;15.18;;;10.25;;
68247;SDS011;55064;49.636;12.164;2023-09-12T05:02:41;20.00;;;12.27;;
68247;SDS011;55064;49.636;12.164;2023-09-12T05:05:06;18.47;;;11.83;;
68247;SDS011;55064;49.636;12.164;2023-09-12T05:10:56;22.05;;;11.98;;
68247;SDS011;55064;49.636;12.164;2023-09-12T05:20:05;14.98;;;10.50;;
68247;SDS011;55064;49.636;12.164;2023-09-12T05:22:47;15.90;;;10.13;;
68247;SDS011;55064;49.636;12.164;2023-09-12T05:36:43;14.43;;;9.30;;
68247;SDS011;55064;49.636;12.164;2023-09-12T05:42:30;14.93;;;9.98;;
68247;SDS011;55064;49.636;12.164;2023-09-12T05:48:19;15.15;;;9.73;;
68247;SDS011;55064;49.636;12.164;2023-09-12T05:50:45;15.17;;;10.07;;
68247;SDS011;55064;49.636;12.164;2023-09-12T05:53:10;15.55;;;10.93;;
68247;SDS011;55064;49.636;12.164;2023-09-12T05:55:37;16.77;;;10.00;;
68247;SDS011;55064;49.636;12.164;2023-09-12T05:58:02;15.50;;;10.73;;
68247;SDS011;55064;49.636;12.164;2023-09-12T06:00:30;17.57;;;11.17;;
68247;SDS011;55064;49.636;12.164;2023-09-12T06:02:56;17.95;;;11.13;;
68247;SDS011;55064;49.636;12.164;2023-09-12T06:05:21;17.20;;;10.87;;
68247;SDS011;55064;49.636;12.164;2023-09-12T06:07:47;17.87;;;10.53;;
68247;SDS011;55064;49.636;12.164;2023-09-12T06:10:14;18.23;;;11.73;;
68247;SDS011;55064;49.636;12.164;2023-09-12T06:12:39;21.10;;;11.20;;
68247;SDS011;55064;49.636;12.164;2023-09-12T06:15:05;18.17;;;11.02;;
68247;SDS011;55064;49.636;12.164;2023-09-12T06:17:30;17.63;;;11.23;;
68247;SDS011;55064;49.636;12.164;2023-09-12T06:19:56;19.38;;;12.10;;
68247;SDS011;55064;49.636;12.164;2023-09-12T06:22:22;17.93;;;11.97;;
68247;SDS011;55064;49.636;12.164;2023-09-12T06:24:50;18.33;;;11.95;;
68247;SDS011;55064;49.636;12.164;2023-09-12T06:27:18;18.10;;;11.98;;
68247;SDS011;55064;49.636;12.164;2023-09-12T06:29:47;18.40;;;12.27;;
68247;SDS011;55064;49.636;12.164;2023-09-12T06:32:13;17.58;;;11.90;;
68247;SDS011;55064;49.636;12.164;2023-09-12T06:34:41;19.55;;;12.40;;
68247;SDS011;55064;49.636;12.164;2023-09-12T06:37:07;20.38;;;12.73;;
68247;SDS011;55064;49.636;12.164;2023-09-12T06:39:32;17.63;;;12.03;;
68247;SDS011;55064;49.636;12.164;2023-09-12T06:41:57;17.00;;;12.27;;
68247;SDS011;55064;49.636;12.164;2023-09-12T06:44:23;18.93;;;12.50;;
68247;SDS011;55064;49.636;12.164;2023-09-12T06:46:49;20.98;;;12.85;;
68247;SDS011;55064;49.636;12.164;2023-09-12T06:49:14;18.33;;;12.40;;
68247;SDS011;55064;49.636;12.164;2023-09-12T06:51:40;18.98;;;13.02;;
68247;SDS011;55064;49.636;12.164;2023-09-12T06:54:08;20.67;;;12.77;;
68247;SDS011;55064;49.636;12.164;2023-09-12T06:56:33;20.27;;;12.88;;
68247;SDS011;55064;49.636;12.164;2023-09-12T06:59:02;20.00;;;13.20;;
68247;SDS011;55064;49.636;12.164;2023-09-12T07:01:30;20.42;;;13.30;;
68247;SDS011;55064;49.636;12.164;2023-09-12T07:03:55;19.35;;;12.25;;
68247;SDS011;55064;49.636;12.164;2023-09-12T07:06:21;25.60;;;13.67;;
68247;SDS011;55064;49.636;12.164;2023-09-12T07:08:52;21.55;;;13.07;;
68247;SDS011;55064;49.636;12.164;2023-09-12T07:11:18;19.70;;;13.48;;
68247;SDS011;55064;49.636;12.164;2023-09-12T07:13:44;19.95;;;13.70;;
68247;SDS011;55064;49.636;12.164;2023-09-12T07:16:14;20.67;;;13.00;;
68247;SDS011;55064;49.636;12.164;2023-09-12T07:18:42;24.83;;;13.82;;
68247;SDS011;55064;49.636;12.164;2023-09-12T07:21:08;19.90;;;13.73;;
68247;SDS011;55064;49.636;12.164;2023-09-12T07:23:36;20.70;;;14.50;;
68247;SDS011;55064;49.636;12.164;2023-09-12T07:26:01;21.00;;;14.43;;
68247;SDS011;55064;49.636;12.164;2023-09-12T07:28:27;20.58;;;13.63;;
68247;SDS011;55064;49.636;12.164;2023-09-12T07:30:56;22.67;;;13.90;;
68247;SDS011;55064;49.636;12.164;2023-09-12T07:33:21;21.42;;;14.18;;
68247;SDS011;55064;49.636;12.164;2023-09-12T07:35:51;19.65;;;13.13;;
68247;SDS011;55064;49.636;12.164;2023-09-12T07:38:17;20.33;;;13.70;;
68247;SDS011;55064;49.636;12.164;2023-09-12T07:40:45;22.27;;;14.77;;
68247;SDS011;55064;49.636;12.164;2023-09-12T07:43:11;19.17;;;13.73;;
68247;SDS011;55064;49.636;12.164;2023-09-12T07:45:36;21.77;;;14.18;;
68247;SDS011;55064;49.636;12.164;2023-09-12T07:48:05;20.53;;;13.40;;
68247;SDS011;55064;49.636;12.164;2023-09-12T07:50:36;21.63;;;13.73;;
68247;SDS011;55064;49.636;12.164;2023-09-12T07:53:03;19.10;;;13.38;;
68247;SDS011;55064;49.636;12.164;2023-09-12T07:55:31;22.95;;;13.77;;
68247;SDS011;55064;49.636;12.164;2023-09-12T07:58:01;20.50;;;13.77;;
68247;SDS011;55064;49.636;12.164;2023-09-12T08:00:27;20.93;;;13.67;;
68247;SDS011;55064;49.636;12.164;2023-09-12T08:02:52;20.63;;;13.60;;
68247;SDS011;55064;49.636;12.164;2023-09-12T08:05:18;20.37;;;14.20;;
68247;SDS011;55064;49.636;12.164;2023-09-12T08:07:44;19.17;;;13.33;;
68247;SDS011;55064;49.636;12.164;2023-09-12T08:10:12;20.00;;;13.65;;
68247;SDS011;55064;49.636;12.164;2023-09-12T08:12:39;20.00;;;12.50;;
68247;SDS011;55064;49.636;12.164;2023-09-12T08:15:09;18.70;;;12.65;;
68247;SDS011;55064;49.636;12.164;2023-09-12T08:17:34;18.90;;;12.43;;
68247;SDS011;55064;49.636;12.164;2023-09-12T08:20:00;18.60;;;12.67;;
68247;SDS011;55064;49.636;12.164;2023-09-12T08:22:27;16.33;;;12.03;;
68247;SDS011;55064;49.636;12.164;2023-09-12T08:24:53;17.63;;;12.87;;
68247;SDS011;55064;49.636;12.164;2023-09-12T08:27:18;17.98;;;12.60;;
68247;SDS011;55064;49.636;12.164;2023-09-12T08:29:43;17.63;;;12.50;;
68247;SDS011;55064;49.636;12.164;2023-09-12T08:32:12;16.70;;;11.70;;
68247;SDS011;55064;49.636;12.164;2023-09-12T08:34:39;16.37;;;11.20;;
68247;SDS011;55064;49.636;12.164;2023-09-12T08:37:04;16.63;;;11.80;;
68247;SDS011;55064;49.636;12.164;2023-09-12T08:39:40;16.33;;;12.13;;
68247;SDS011;55064;49.636;12.164;2023-09-12T08:42:08;16.40;;;12.20;;
68247;SDS011;55064;49.636;12.164;2023-09-12T08:44:40;18.97;;;12.53;;
68247;SDS011;55064;49.636;12.164;2023-09-12T08:47:07;18.23;;;12.50;;
68247;SDS011;55064;49.636;12.164;2023-09-12T08:49:38;16.50;;;11.48;;
68247;SDS011;55064;49.636;12.164;2023-09-12T08:52:05;17.03;;;12.73;;
68247;SDS011;55064;49.636;12.164;2023-09-12T08:54:32;15.48;;;11.73;;
68247;SDS011;55064;49.636;12.164;2023-09-12T08:56:58;15.53;;;11.90;;
68247;SDS011;55064;49.636;12.164;2023-09-12T08:59:30;15.27;;;11.50;;
68247;SDS011;55064;49.636;12.164;2023-09-12T09:01:57;15.20;;;11.80;;
68247;SDS011;55064;49.636;12.164;2023-09-12T09:04:24;17.55;;;11.70;;
68247;SDS011;55064;49.636;12.164;2023-09-12T09:06:55;17.77;;;12.17;;
68247;SDS011;55064;49.636;12.164;2023-09-12T09:09:25;16.85;;;11.68;;
68247;SDS011;55064;49.636;12.164;2023-09-12T09:11:53;15.30;;;11.23;;
68247;SDS011;55064;49.636;12.164;2023-09-12T09:14:19;17.27;;;11.60;;
68247;SDS011;55064;49.636;12.164;2023-09-12T09:16:44;18.67;;;12.33;;
68247;SDS011;55064;49.636;12.164;2023-09-12T09:19:09;17.97;;;11.87;;
68247;SDS011;55064;49.636;12.164;2023-09-12T09:21:37;15.43;;;11.70;;
68247;SDS011;55064;49.636;12.164;2023-09-12T09:24:08;14.90;;;11.50;;
68247;SDS011;55064;49.636;12.164;2023-09-12T09:29:09;15.73;;;11.77;;
68247;SDS011;55064;49.636;12.164;2023-09-12T09:31:42;14.90;;;12.02;;
68247;SDS011;55064;49.636;12.164;2023-09-12T09:34:12;14.30;;;11.23;;
68247;SDS011;55064;49.636;12.164;2023-09-12T09:36:42;13.73;;;11.43;;
68247;SDS011;55064;49.636;12.164;2023-09-12T09:39:09;16.17;;;12.00;;
68247;SDS011;55064;49.636;12.164;2023-09-12T09:41:35;16.17;;;11.52;;
68247;SDS011;55064;49.636;12.164;2023-09-12T09:44:02;14.63;;;11.07;;
68247;SDS011;55064;49.636;12.164;2023-09-12T09:46:29;15.75;;;11.25;;
68247;SDS011;55064;49.636;12.164;2023-09-12T09:48:57;15.13;;;11.70;;
68247;SDS011;55064;49.636;12.164;2023-09-12T09:51:24;15.98;;;11.63;;
68247;SDS011;55064;49.636;12.164;2023-09-12T09:53:51;17.27;;;11.98;;
68247;SDS011;55064;49.636;12.164;2023-09-12T09:56:17;13.13;;;11.13;;
68247;SDS011;55064;49.636;12.164;2023-09-12T10:01:20;14.50;;;11.88;;
68247;SDS011;55064;49.636;12.164;2023-09-12T10:03:48;14.90;;;11.43;;
68247;SDS011;55064;49.636;12.164;2023-09-12T10:06:16;15.43;;;12.20;;
68247;SDS011;55064;49.636;12.164;2023-09-12T10:08:42;14.55;;;11.30;;
68247;SDS011;55064;49.636;12.164;2023-09-12T10:11:15;18.65;;;11.98;;
68247;SDS011;55064;49.636;12.164;2023-09-12T10:13:46;14.25;;;11.27;;
68247;SDS011;55064;49.636;12.164;2023-09-12T10:16:14;15.25;;;11.93;;
68247;SDS011;55064;49.636;12.164;2023-09-12T10:18:44;14.93;;;12.10;;
68247;SDS011;55064;49.636;12.164;2023-09-12T10:21:15;14.45;;;10.95;;
68247;SDS011;55064;49.636;12.164;2023-09-12T10:23:46;16.67;;;11.85;;
68247;SDS011;55064;49.636;12.164;2023-09-12T10:26:16;14.88;;;11.45;;
68247;SDS011;55064;49.636;12.164;2023-09-12T10:28:42;14.32;;;11.48;;
68247;SDS011;55064;49.636;12.164;2023-09-12T10:31:08;15.80;;;11.60;;
68247;SDS011;55064;49.636;12.164;2023-09-12T10:33:36;13.10;;;10.75;;
68247;SDS011;55064;49.636;12.164;2023-09-12T10:36:05;16.50;;;11.10;;
68247;SDS011;55064;49.636;12.164;2023-09-12T10:38:33;13.70;;;10.43;;
68247;SDS011;55064;49.636;12.164;2023-09-12T10:41:04;14.43;;;11.40;;
68247;SDS011;55064;49.636;12.164;2023-09-12T10:43:32;14.73;;;11.05;;
68247;SDS011;55064;49.636;12.164;2023-09-12T10:46:02;14.05;;;11.05;;
68247;SDS011;55064;49.636;12.164;2023-09-12T10:48:29;13.82;;;10.48;;
68247;SDS011;55064;49.636;12.164;2023-09-12T10:50:57;14.73;;;10.70;;
68247;SDS011;55064;49.636;12.164;2023-09-12T10:53:27;14.38;;;10.60;;
68247;SDS011;55064;49.636;12.164;2023-09-12T11:01:31;13.65;;;10.52;;
68247;SDS011;55064;49.636;12.164;2023-09-12T11:03:58;13.47;;;10.57;;
68247;SDS011;55064;49.636;12.164;2023-09-12T11:06:30;13.45;;;10.23;;
68247;SDS011;55064;49.636;12.164;2023-09-12T11:11:39;14.80;;;10.73;;
68247;SDS011;55064;49.636;12.164;2023-09-12T11:14:07;12.60;;;10.20;;
68247;SDS011;55064;49.636;12.164;2023-09-12T11:16:34;15.73;;;10.05;;
68247;SDS011;55064;49.636;12.164;2023-09-12T11:21:46;12.52;;;10.50;;
68247;SDS011;55064;49.636;12.164;2023-09-12T11:24:13;12.57;;;9.82;;
68247;SDS011;55064;49.636;12.164;2023-09-12T11:26:55;15.77;;;10.20;;
68247;SDS011;55064;49.636;12.164;2023-09-12T11:29:35;14.50;;;10.13;;
68247;SDS011;55064;49.636;12.164;2023-09-12T11:32:06;13.55;;;10.18;;
68247;SDS011;55064;49.636;12.164;2023-09-12T11:34:44;14.57;;;10.40;;
68247;SDS011;55064;49.636;12.164;2023-09-12T11:37:14;14.35;;;10.10;;
68247;SDS011;55064;49.636;12.164;2023-09-12T11:39:49;13.57;;;10.27;;
68247;SDS011;55064;49.636;12.164;2023-09-12T11:42:15;11.68;;;9.50;;
68247;SDS011;55064;49.636;12.164;2023-09-12T11:44:41;11.57;;;9.90;;
68247;SDS011;55064;49.636;12.164;2023-09-12T11:47:07;14.20;;;10.65;;
68247;SDS011;55064;49.636;12.164;2023-09-12T11:49:36;11.70;;;9.65;;
68247;SDS011;55064;49.636;12.164;2023-09-12T11:52:02;12.73;;;9.10;;
68247;SDS011;55064;49.636;12.164;2023-09-12T11:54:29;12.57;;;9.38;;
68247;SDS011;55064;49.636;12.164;2023-09-12T11:56:57;12.05;;;9.23;;
68247;SDS011;55064;49.636;12.164;2023-09-12T11:59:24;11.88;;;9.13;;
68247;SDS011;55064;49.636;12.164;2023-09-12T12:01:51;12.55;;;9.20;;
68247;SDS011;55064;49.636;12.164;2023-09-12T12:04:17;12.70;;;9.43;;
68247;SDS011;55064;49.636;12.164;2023-09-12T12:06:42;14.48;;;9.38;;
68247;SDS011;55064;49.636;12.164;2023-09-12T12:09:08;14.75;;;9.35;;
68247;SDS011;55064;49.636;12.164;2023-09-12T12:11:35;11.97;;;9.10;;
68247;SDS011;55064;49.636;12.164;2023-09-12T12:14:12;12.15;;;9.35;;
68247;SDS011;55064;49.636;12.164;2023-09-12T12:16:40;13.48;;;9.27;;
68247;SDS011;55064;49.636;12.164;2023-09-12T12:19:08;11.03;;;8.73;;
68247;SDS011;55064;49.636;12.164;2023-09-12T12:21:34;15.35;;;9.85;;
68247;SDS011;55064;49.636;12.164;2023-09-12T12:24:00;13.93;;;10.00;;
68247;SDS011;55064;49.636;12.164;2023-09-12T12:26:27;15.40;;;10.00;;
68247;SDS011;55064;49.636;12.164;2023-09-12T12:28:53;14.60;;;10.37;;
68247;SDS011;55064;49.636;12.164;2023-09-12T12:31:19;13.83;;;10.17;;
68247;SDS011;55064;49.636;12.164;2023-09-12T12:33:48;14.52;;;10.40;;
68247;SDS011;55064;49.636;12.164;2023-09-12T12:36:14;13.77;;;10.48;;
68247;SDS011;55064;49.636;12.164;2023-09-12T12:38:39;14.60;;;10.20;;
68247;SDS011;55064;49.636;12.164;2023-09-12T12:41:08;16.42;;;11.05;;
68247;SDS011;55064;49.636;12.164;2023-09-12T12:43:34;15.77;;;9.95;;
68247;SDS011;55064;49.636;12.164;2023-09-12T12:45:59;15.93;;;10.57;;
68247;SDS011;55064;49.636;12.164;2023-09-12T12:48:34;12.87;;;10.60;;
68247;SDS011;55064;49.636;12.164;2023-09-12T12:53:51;14.70;;;10.68;;
68247;SDS011;55064;49.636;12.164;2023-09-12T12:56:19;15.57;;;10.83;;
68247;SDS011;55064;49.636;12.164;2023-09-12T12:58:52;14.32;;;10.60;;
68247;SDS011;55064;49.636;12.164;2023-09-12T13:01:20;14.35;;;10.27;;
68247;SDS011;55064;49.636;12.164;2023-09-12T13:03:47;16.77;;;10.18;;
68247;SDS011;55064;49.636;12.164;2023-09-12T13:06:15;14.85;;;11.27;;
68247;SDS011;55064;49.636;12.164;2023-09-12T13:08:42;14.00;;;10.50;;
68247;SDS011;55064;49.636;12.164;2023-09-12T13:11:11;14.65;;;10.70;;
68247;SDS011;55064;49.636;12.164;2023-09-12T13:13:38;15.82;;;11.18;;
68247;SDS011;55064;49.636;12.164;2023-09-12T13:16:06;14.90;;;10.88;;
68247;SDS011;55064;49.636;12.164;2023-09-12T13:18:34;15.20;;;11.57;;
68247;SDS011;55064;49.636;12.164;2023-09-12T13:21:00;15.00;;;10.37;;
68247;SDS011;55064;49.636;12.164;2023-09-12T13:23:26;16.50;;;10.80;;
68247;SDS011;55064;49.636;12.164;2023-09-12T13:25:52;14.20;;;10.73;;
68247;SDS011;55064;49.636;12.164;2023-09-12T13:28:20;15.73;;;11.23;;
68247;SDS011;55064;49.636;12.164;2023-09-12T13:30:48;13.63;;;10.90;;
68247;SDS011;55064;49.636;12.164;2023-09-12T13:33:14;16.60;;;11.07;;
68247;SDS011;55064;49.636;12.164;2023-09-12T13:35:42;13.77;;;11.20;;
68247;SDS011;55064;49.636;12.164;2023-09-12T13:38:07;14.13;;;10.98;;
68247;SDS011;55064;49.636;12.164;2023-09-12T13:40:43;15.47;;;11.13;;
68247;SDS011;55064;49.636;12.164;2023-09-12T13:43:10;14.25;;;10.73;;
68247;SDS011;55064;49.636;12.164;2023-09-12T13:45:40;14.48;;;10.95;;
68247;SDS011;55064;49.636;12.164;2023-09-12T13:48:05;13.05;;;11.20;;
68247;SDS011;55064;49.636;12.164;2023-09-12T13:50:32;12.82;;;10.40;;
68247;SDS011;55064;49.636;12.164;2023-09-12T13:53:01;16.10;;;11.30;;
68247;SDS011;55064;49.636;12.164;2023-09-12T13:55:34;13.85;;;10.45;;
68247;SDS011;55064;49.636;12.164;2023-09-12T13:58:01;14.35;;;11.20;;
68247;SDS011;55064;49.636;12.164;2023-09-12T14:00:30;15.73;;;11.43;;
68247;SDS011;55064;49.636;12.164;2023-09-12T14:02:59;13.45;;;11.30;;
68247;SDS011;55064;49.636;12.164;2023-09-12T14:05:24;18.13;;;11.43;;
68247;SDS011;55064;49.636;12.164;2023-09-12T14:07:50;15.30;;;11.07;;
68247;SDS011;55064;49.636;12.164;2023-09-12T14:10:16;15.38;;;11.00;;
68247;SDS011;55064;49.636;12.164;2023-09-12T14:12:44;18.48;;;10.70;;
68247;SDS011;55064;49.636;12.164;2023-09-12T14:15:10;15.53;;;10.70;;
68247;SDS011;55064;49.636;12.164;2023-09-12T14:17:38;15.98;;;10.60;;
68247;SDS011;55064;49.636;12.164;2023-09-12T14:20:03;15.77;;;10.90;;
68247;SDS011;55064;49.636;12.164;2023-09-12T14:22:29;15.80;;;10.70;;
68247;SDS011;55064;49.636;12.164;2023-09-12T14:24:54;15.47;;;10.37;;
68247;SDS011;55064;49.636;12.164;2023-09-12T14:27:23;13.82;;;10.90;;
68247;SDS011;55064;49.636;12.164;2023-09-12T14:29:49;13.07;;;11.05;;
68247;SDS011;55064;49.636;12.164;2023-09-12T14:32:18;14.77;;;10.98;;
68247;SDS011;55064;49.636;12.164;2023-09-12T14:34:45;13.93;;;11.10;;
68247;SDS011;55064;49.636;12.164;2023-09-12T14:37:11;13.67;;;10.70;;
68247;SDS011;55064;49.636;12.164;2023-09-12T14:39:39;14.90;;;10.67;;
68247;SDS011;55064;49.636;12.164;2023-09-12T14:42:04;13.85;;;10.57;;
68247;SDS011;55064;49.636;12.164;2023-09-12T14:44:33;16.38;;;10.85;;
68247;SDS011;55064;49.636;12.164;2023-09-12T14:47:02;15.02;;;11.20;;
68247;SDS011;55064;49.636;12.164;2023-09-12T14:49:27;14.63;;;10.53;;
68247;SDS011;55064;49.636;12.164;2023-09-12T14:51:54;15.48;;;10.45;;
68247;SDS011;55064;49.636;12.164;2023-09-12T14:54:19;13.55;;;10.52;;
68247;SDS011;55064;49.636;12.164;2023-09-12T14:56:47;13.60;;;10.63;;
68247;SDS011;55064;49.636;12.164;2023-09-12T14:59:13;18.33;;;10.95;;
68247;SDS011;55064;49.636;12.164;2023-09-12T15:01:38;15.47;;;11.03;;
68247;SDS011;55064;49.636;12.164;2023-09-12T15:04:03;14.53;;;10.77;;
68247;SDS011;55064;49.636;12.164;2023-09-12T15:06:29;15.33;;;11.00;;
68247;SDS011;55064;49.636;12.164;2023-09-12T15:08:58;13.45;;;10.73;;
68247;SDS011;55064;49.636;12.164;2023-09-12T15:11:23;15.18;;;11.15;;
68247;SDS011;55064;49.636;12.164;2023-09-12T15:13:49;13.07;;;10.07;;
68247;SDS011;55064;49.636;12.164;2023-09-12T15:16:14;13.90;;;10.67;;
68247;SDS011;55064;49.636;12.164;2023-09-12T15:18:42;13.95;;;10.82;;
68247;SDS011;55064;49.636;12.164;2023-09-12T15:21:07;15.90;;;11.13;;
68247;SDS011;55064;49.636;12.164;2023-09-12T15:23:32;14.80;;;10.03;;
68247;SDS011;55064;49.636;12.164;2023-09-12T15:26:01;15.93;;;10.18;;
68247;SDS011;55064;49.636;12.164;2023-09-12T15:28:26;14.00;;;10.00;;
68247;SDS011;55064;49.636;12.164;2023-09-12T15:30:51;13.70;;;10.37;;
68247;SDS011;55064;49.636;12.164;2023-09-12T15:33:19;16.55;;;10.30;;
68247;SDS011;55064;49.636;12.164;2023-09-12T15:35:45;16.07;;;9.80;;
68247;SDS011;55064;49.636;12.164;2023-09-12T15:38:10;13.80;;;10.40;;
68247;SDS011;55064;49.636;12.164;2023-09-12T15:40:36;13.07;;;9.90;;
68247;SDS011;55064;49.636;12.164;2023-09-12T15:43:01;14.40;;;9.70;;
68247;SDS011;55064;49.636;12.164;2023-09-12T15:45:29;12.57;;;10.35;;
68247;SDS011;55064;49.636;12.164;2023-09-12T15:47:54;15.63;;;10.03;;
68247;SDS011;55064;49.636;12.164;2023-09-12T15:50:19;14.63;;;10.00;;
68247;SDS011;55064;49.636;12.164;2023-09-12T15:52:45;12.80;;;10.40;;
68247;SDS011;55064;49.636;12.164;2023-09-12T15:55:11;14.77;;;10.53;;
68247;SDS011;55064;49.636;12.164;2023-09-12T15:57:37;11.88;;;9.63;;
68247;SDS011;55064;49.636;12.164;2023-09-12T16:00:07;13.85;;;10.27;;
68247;SDS011;55064;49.636;12.164;2023-09-12T16:02:39;15.00;;;9.90;;
68247;SDS011;55064;49.636;12.164;2023-09-12T16:05:05;13.60;;;9.95;;
68247;SDS011;55064;49.636;12.164;2023-09-12T16:07:31;12.85;;;10.30;;
68247;SDS011;55064;49.636;12.164;2023-09-12T16:09:57;13.60;;;10.17;;
68247;SDS011;55064;49.636;12.164;2023-09-12T16:12:22;13.07;;;9.97;;
68247;SDS011;55064;49.636;12.164;2023-09-12T16:14:53;15.40;;;11.50;;
68247;SDS011;55064;49.636;12.164;2023-09-12T16:17:20;14.98;;;10.68;;
68247;SDS011;55064;49.636;12.164;2023-09-12T16:19:46;14.23;;;9.60;;
68247;SDS011;55064;49.636;12.164;2023-09-12T16:22:12;13.77;;;10.10;;
68247;SDS011;55064;49.636;12.164;2023-09-12T16:24:37;15.00;;;9.67;;
68247;SDS011;55064;49.636;12.164;2023-09-12T16:27:02;13.97;;;9.80;;
68247;SDS011;55064;49.636;12.164;2023-09-12T16:29:28;15.10;;;9.80;;
68247;SDS011;55064;49.636;12.164;2023-09-12T16:31:54;12.77;;;10.10;;
68247;SDS011;55064;49.636;12.164;2023-09-12T16:34:20;14.20;;;9.90;;
68247;SDS011;55064;49.636;12.164;2023-09-12T16:36:46;16.20;;;10.23;;
68247;SDS011;55064;49.636;12.164;2023-09-12T16:39:12;13.57;;;9.98;;
68247;SDS011;55064;49.636;12.164;2023-09-12T16:41:37;14.40;;;9.90;;
68247;SDS011;55064;49.636;12.164;2023-09-12T16:44:02;15.67;;;10.87;;
68247;SDS011;55064;49.636;12.164;2023-09-12T16:46:28;15.97;;;10.73;;
68247;SDS011;55064;49.636;12.164;2023-09-12T16:48:55;14.82;;;10.57;;
68247;SDS011;55064;49.636;12.164;2023-09-12T16:51:22;16.17;;;9.97;;
68247;SDS011;55064;49.636;12.164;2023-09-12T16:53:49;17.23;;;10.50;;
68247;SDS011;55064;49.636;12.164;2023-09-12T16:56:15;17.95;;;10.10;;
68247;SDS011;55064;49.636;12.164;2023-09-12T16:58:40;15.80;;;10.47;;
68247;SDS011;55064;49.636;12.164;2023-09-12T17:01:06;14.47;;;10.43;;
68247;SDS011;55064;49.636;12.164;2023-09-12T17:03:32;15.35;;;10.55;;
68247;SDS011;55064;49.636;12.164;2023-09-12T17:06:00;14.93;;;10.23;;
68247;SDS011;55064;49.636;12.164;2023-09-12T17:08:27;13.32;;;9.90;;
68247;SDS011;55064;49.636;12.164;2023-09-12T17:10:55;13.65;;;10.00;;
68247;SDS011;55064;49.636;12.164;2023-09-12T17:13:20;17.63;;;10.20;;
68247;SDS011;55064;49.636;12.164;2023-09-12T17:15:46;13.65;;;10.70;;
68247;SDS011;55064;49.636;12.164;2023-09-12T17:18:14;17.38;;;10.18;;
68247;SDS011;55064;49.636;12.164;2023-09-12T17:20:39;12.93;;;9.93;;
68247;SDS011;55064;49.636;12.164;2023-09-12T17:23:06;13.73;;;10.43;;
68247;SDS011;55064;49.636;12.164;2023-09-12T17:25:31;12.93;;;10.43;;
68247;SDS011;55064;49.636;12.164;2023-09-12T17:27:57;14.17;;;10.67;;
68247;SDS011;55064;49.636;12.164;2023-09-12T17:30:22;12.30;;;9.70;;
68247;SDS011;55064;49.636;12.164;2023-09-12T17:32:47;13.27;;;10.20;;
68247;SDS011;55064;49.636;12.164;2023-09-12T17:35:13;16.77;;;10.90;;
68247;SDS011;55064;49.636;12.164;2023-09-12T17:37:38;13.73;;;10.10;;
68247;SDS011;55064;49.636;12.164;2023-09-12T17:40:05;16.98;;;10.40;;
68247;SDS011;55064;49.636;12.164;2023-09-12T17:42:31;15.30;;;10.32;;
68247;SDS011;55064;49.636;12.164;2023-09-12T17:44:59;14.67;;;10.57;;
68247;SDS011;55064;49.636;12.164;2023-09-12T17:47:24;14.52;;;10.48;;
68247;SDS011;55064;49.636;12.164;2023-09-12T17:49:49;16.77;;;10.87;;
68247;SDS011;55064;49.636;12.164;2023-09-12T17:52:17;15.35;;;10.95;;
68247;SDS011;55064;49.636;12.164;2023-09-12T17:54:43;14.70;;;10.73;;
68247;SDS011;55064;49.636;12.164;2023-09-12T17:57:09;13.85;;;10.57;;
68247;SDS011;55064;49.636;12.164;2023-09-12T17:59:35;16.77;;;10.75;;
68247;SDS011;55064;49.636;12.164;2023-09-12T18:02:03;16.77;;;11.13;;
68247;SDS011;55064;49.636;12.164;2023-09-12T18:04:29;14.75;;;10.82;;
68247;SDS011;55064;49.636;12.164;2023-09-12T18:06:54;14.93;;;10.30;;
68247;SDS011;55064;49.636;12.164;2023-09-12T18:09:22;15.68;;;11.05;;
68247;SDS011;55064;49.636;12.164;2023-09-12T18:11:48;15.70;;;10.27;;
68247;SDS011;55064;49.636;12.164;2023-09-12T18:14:16;15.73;;;10.50;;
68247;SDS011;55064;49.636;12.164;2023-09-12T18:16:41;14.77;;;10.40;;
68247;SDS011;55064;49.636;12.164;2023-09-12T18:19:07;16.45;;;11.27;;
68247;SDS011;55064;49.636;12.164;2023-09-12T18:21:33;17.30;;;12.07;;
68247;SDS011;55064;49.636;12.164;2023-09-12T18:23:58;15.53;;;11.10;;
68247;SDS011;55064;49.636;12.164;2023-09-12T18:26:23;15.17;;;10.67;;
68247;SDS011;55064;49.636;12.164;2023-09-12T18:28:50;16.15;;;10.93;;
68247;SDS011;55064;49.636;12.164;2023-09-12T18:31:19;18.07;;;11.67;;
68247;SDS011;55064;49.636;12.164;2023-09-12T18:33:44;14.80;;;11.40;;